sensor_id;sensor_type;location;lat;lon;timestamp;noise_LAeq;noise_LA_min;noise_LA_max;noise_LA01;noise_LA95
4048;Laerm;2038;51.728;6.674;2023-11-21T00:02:10;42.88;35.36;60.49;;
4048;Laerm;2038;51.728;6.674;2023-11-21T00:04:37;43.77;34.69;63.42;;
4048;Laerm;2038;51.728;6.674;2023-11-21T00:07:03;43.32;35.94;60.93;;
4048;Laerm;2038;51.728;6.674;2023-11-21T00:09:30;44.54;35.94;63.31;;
4048;Laerm;2038;51.728;6.674;2023-11-21T00:11:56;38.88;34.69;41.14;;
4048;Laerm;2038;51.728;6.674;2023-11-21T00:14:22;38.99;35.94;41.14;;
4048;Laerm;2038;51.728;6.674;2023-11-21T00:16:48;38.95;35.86;42.47;;
4048;Laerm;2038;51.728;6.674;2023-11-21T00:19:14;39.04;35.94;41.22;;
4048;Laerm;2038;51.728;6.674;2023-11-21T00:21:41;39.55;35.66;42.93;;
4048;Laerm;2038;51.728;6.674;2023-11-21T00:24:11;39.48;33.90;42.82;;
4048;Laerm;2038;51.728;6.674;2023-11-21T00:26:40;38.97;35.66;41.53;;
4048;Laerm;2038;51.728;6.674;2023-11-21T00:29:06;38.99;35.94;43.14;;
4048;Laerm;2038;51.728;6.674;2023-11-21T00:31:36;38.93;35.36;41.14;;
4048;Laerm;2038;51.728;6.674;2023-11-21T00:34:05;39.01;35.36;46.02;;
4048;Laerm;2038;51.728;6.674;2023-11-21T00:36:32;38.97;35.36;42.03;;
4048;Laerm;2038;51.728;6.674;2023-11-21T00:38:58;39.04;35.66;42.16;;
4048;Laerm;2038;51.728;6.674;2023-11-21T00:41:25;38.98;35.94;41.38;;
4048;Laerm;2038;51.728;6.674;2023-11-21T00:43:54;39.06;35.36;41.53;;
4048;Laerm;2038;51.728;6.674;2023-11-21T00:46:21;38.90;33.44;41.46;;
4048;Laerm;2038;51.728;6.674;2023-11-21T00:48:47;38.79;35.36;41.14;;
4048;Laerm;2038;51.728;6.674;2023-11-21T00:51:13;38.77;35.66;41.41;;
4048;Laerm;2038;51.728;6.674;2023-11-21T00:53:40;38.93;35.36;41.33;;
4048;Laerm;2038;51.728;6.674;2023-11-21T00:56:06;38.87;35.66;41.22;;
4048;Laerm;2038;51.728;6.674;2023-11-21T00:58:34;38.79;35.66;41.22;;
4048;Laerm;2038;51.728;6.674;2023-11-21T01:01:01;38.71;34.31;42.98;;
4048;Laerm;2038;51.728;6.674;2023-11-21T01:03:28;38.79;34.69;45.20;;
4048;Laerm;2038;51.728;6.674;2023-11-21T01:05:54;38.68;35.04;41.30;;
4048;Laerm;2038;51.728;6.674;2023-11-21T01:08:21;38.66;35.36;41.22;;
4048;Laerm;2038;51.728;6.674;2023-11-21T01:10:47;38.73;34.69;42.98;;
4048;Laerm;2038;51.728;6.674;2023-11-21T01:13:14;38.86;35.66;41.22;;
4048;Laerm;2038;51.728;6.674;2023-11-21T01:15:41;44.84;35.04;60.93;;
4048;Laerm;2038;51.728;6.674;2023-11-21T01:18:08;38.90;36.20;41.22;;
4048;Laerm;2038;51.728;6.674;2023-11-21T01:20:35;39.10;36.20;46.35;;
4048;Laerm;2038;51.728;6.674;2023-11-21T01:23:01;43.46;35.66;58.13;;
4048;Laerm;2038;51.728;6.674;2023-11-21T01:25:27;39.69;36.20;42.22;;
4048;Laerm;2038;51.728;6.674;2023-11-21T01:27:53;39.14;35.36;47.28;;
4048;Laerm;2038;51.728;6.674;2023-11-21T01:30:20;38.81;35.04;41.14;;
4048;Laerm;2038;51.728;6.674;2023-11-21T01:32:46;38.92;35.66;41.30;;
4048;Laerm;2038;51.728;6.674;2023-11-21T01:35:12;38.89;35.66;41.38;;
4048;Laerm;2038;51.728;6.674;2023-11-21T01:37:38;39.08;35.36;42.65;;
4048;Laerm;2038;51.728;6.674;2023-11-21T01:40:05;39.36;35.36;43.29;;
4048;Laerm;2038;51.728;6.674;2023-11-21T01:42:40;38.87;34.31;41.30;;
4048;Laerm;2038;51.728;6.674;2023-11-21T01:45:08;38.81;36.20;41.38;;
4048;Laerm;2038;51.728;6.674;2023-11-21T01:47:36;38.80;35.66;41.22;;
4048;Laerm;2038;51.728;6.674;2023-11-21T01:50:03;42.11;35.36;57.84;;
4048;Laerm;2038;51.728;6.674;2023-11-21T01:52:36;38.81;35.36;41.14;;
4048;Laerm;2038;51.728;6.674;2023-11-21T01:55:04;38.78;35.66;41.68;;
4048;Laerm;2038;51.728;6.674;2023-11-21T01:57:31;38.86;35.36;41.06;;
4048;Laerm;2038;51.728;6.674;2023-11-21T02:00:02;38.87;35.94;41.26;;
4048;Laerm;2038;51.728;6.674;2023-11-21T02:02:37;38.89;35.94;41.38;;
4048;Laerm;2038;51.728;6.674;2023-11-21T02:05:03;38.98;35.66;41.38;;
4048;Laerm;2038;51.728;6.674;2023-11-21T02:07:29;39.21;35.94;41.61;;
4048;Laerm;2038;51.728;6.674;2023-11-21T02:09:56;39.17;35.94;41.38;;
4048;Laerm;2038;51.728;6.674;2023-11-21T02:12:22;41.77;35.94;57.83;;
4048;Laerm;2038;51.728;6.674;2023-11-21T02:14:48;38.91;34.69;41.14;;
4048;Laerm;2038;51.728;6.674;2023-11-21T02:17:14;39.07;34.31;41.22;;
4048;Laerm;2038;51.728;6.674;2023-11-21T02:19:40;49.17;35.66;65.55;;
4048;Laerm;2038;51.728;6.674;2023-11-21T02:22:07;39.46;35.94;43.34;;
4048;Laerm;2038;51.728;6.674;2023-11-21T02:24:33;39.13;35.66;41.53;;
4048;Laerm;2038;51.728;6.674;2023-11-21T02:27:00;39.07;35.59;43.77;;
4048;Laerm;2038;51.728;6.674;2023-11-21T02:29:26;39.19;35.36;41.38;;
4048;Laerm;2038;51.728;6.674;2023-11-21T02:31:55;45.35;36.45;62.09;;
4048;Laerm;2038;51.728;6.674;2023-11-21T02:34:22;39.02;34.69;41.14;;
4048;Laerm;2038;51.728;6.674;2023-11-21T02:36:49;39.19;35.36;41.61;;
4048;Laerm;2038;51.728;6.674;2023-11-21T02:39:15;40.49;35.66;46.59;;
4048;Laerm;2038;51.728;6.674;2023-11-21T02:41:48;39.49;36.45;42.76;;
4048;Laerm;2038;51.728;6.674;2023-11-21T02:44:14;39.17;35.66;41.53;;
4048;Laerm;2038;51.728;6.674;2023-11-21T02:46:40;39.11;36.20;41.46;;
4048;Laerm;2038;51.728;6.674;2023-11-21T02:49:07;39.24;35.94;41.38;;
4048;Laerm;2038;51.728;6.674;2023-11-21T02:51:36;43.78;35.36;62.03;;
4048;Laerm;2038;51.728;6.674;2023-11-21T02:54:05;39.11;35.94;41.38;;
4048;Laerm;2038;51.728;6.674;2023-11-21T02:56:34;39.14;35.66;48.03;;
4048;Laerm;2038;51.728;6.674;2023-11-21T02:59:01;43.88;35.04;61.64;;
4048;Laerm;2038;51.728;6.674;2023-11-21T03:01:27;39.19;35.31;44.80;;
4048;Laerm;2038;51.728;6.674;2023-11-21T03:03:54;39.26;35.94;43.39;;
4048;Laerm;2038;51.728;6.674;2023-11-21T03:06:22;47.26;35.36;63.22;;
4048;Laerm;2038;51.728;6.674;2023-11-21T03:08:48;44.72;36.20;60.55;;
4048;Laerm;2038;51.728;6.674;2023-11-21T03:11:15;41.04;36.45;46.48;;
4048;Laerm;2038;51.728;6.674;2023-11-21T03:13:42;39.20;35.66;43.14;;
4048;Laerm;2038;51.728;6.674;2023-11-21T03:16:12;42.30;35.94;56.09;;
4048;Laerm;2038;51.728;6.674;2023-11-21T03:18:39;39.22;36.20;41.75;;
4048;Laerm;2038;51.728;6.674;2023-11-21T03:21:06;39.23;35.66;41.89;;
4048;Laerm;2038;51.728;6.674;2023-11-21T03:23:35;39.09;35.94;41.53;;
4048;Laerm;2038;51.728;6.674;2023-11-21T03:26:03;42.00;35.66;58.33;;
4048;Laerm;2038;51.728;6.674;2023-11-21T03:28:29;39.10;35.94;41.53;;
4048;Laerm;2038;51.728;6.674;2023-11-21T03:30:59;50.52;35.94;67.29;;
4048;Laerm;2038;51.728;6.674;2023-11-21T03:33:25;44.32;36.45;60.59;;
4048;Laerm;2038;51.728;6.674;2023-11-21T03:35:51;43.52;35.66;58.44;;
4048;Laerm;2038;51.728;6.674;2023-11-21T03:38:18;48.15;35.66;67.06;;
4048;Laerm;2038;51.728;6.674;2023-11-21T03:40:45;40.51;35.94;47.55;;
4048;Laerm;2038;51.728;6.674;2023-11-21T03:43:11;39.29;35.66;41.75;;
4048;Laerm;2038;51.728;6.674;2023-11-21T03:45:38;39.82;36.69;44.35;;
4048;Laerm;2038;51.728;6.674;2023-11-21T03:48:07;53.17;37.88;67.00;;
4048;Laerm;2038;51.728;6.674;2023-11-21T03:50:33;39.64;36.20;42.82;;
4048;Laerm;2038;51.728;6.674;2023-11-21T03:52:59;43.77;35.66;60.21;;
4048;Laerm;2038;51.728;6.674;2023-11-21T03:55:26;39.53;35.94;41.68;;
4048;Laerm;2038;51.728;6.674;2023-11-21T03:57:52;42.66;36.45;57.98;;
4048;Laerm;2038;51.728;6.674;2023-11-21T04:00:19;39.57;35.94;41.68;;
4048;Laerm;2038;51.728;6.674;2023-11-21T04:02:48;45.16;36.77;62.63;;
4048;Laerm;2038;51.728;6.674;2023-11-21T04:05:14;53.22;35.66;68.12;;
4048;Laerm;2038;51.728;6.674;2023-11-21T04:07:40;47.48;36.91;63.22;;
4048;Laerm;2038;51.728;6.674;2023-11-21T04:10:08;54.73;37.70;73.57;;
4048;Laerm;2038;51.728;6.674;2023-11-21T04:12:36;39.73;36.69;43.00;;
4048;Laerm;2038;51.728;6.674;2023-11-21T04:15:03;44.17;35.94;59.04;;
4048;Laerm;2038;51.728;6.674;2023-11-21T04:17:29;47.87;35.94;64.05;;
4048;Laerm;2038;51.728;6.674;2023-11-21T04:19:55;45.23;36.91;59.63;;
4048;Laerm;2038;51.728;6.674;2023-11-21T04:22:21;47.37;35.94;63.17;;
4048;Laerm;2038;51.728;6.674;2023-11-21T04:24:48;52.36;36.91;69.86;;
4048;Laerm;2038;51.728;6.674;2023-11-21T04:27:15;45.26;37.12;62.39;;
4048;Laerm;2038;51.728;6.674;2023-11-21T04:29:44;43.48;35.94;59.16;;
4048;Laerm;2038;51.728;6.674;2023-11-21T04:32:10;49.09;36.45;64.17;;
4048;Laerm;2038;51.728;6.674;2023-11-21T04:34:37;51.02;37.52;63.15;;
4048;Laerm;2038;51.728;6.674;2023-11-21T04:37:03;50.52;37.12;64.13;;
4048;Laerm;2038;51.728;6.674;2023-11-21T04:39:32;48.02;37.70;60.72;;
4048;Laerm;2038;51.728;6.674;2023-11-21T04:41:58;52.43;37.70;69.38;;
4048;Laerm;2038;51.728;6.674;2023-11-21T04:44:24;47.06;36.45;61.52;;
4048;Laerm;2038;51.728;6.674;2023-11-21T04:46:51;53.88;39.08;69.22;;
4048;Laerm;2038;51.728;6.674;2023-11-21T04:49:17;48.28;36.91;60.00;;
4048;Laerm;2038;51.728;6.674;2023-11-21T04:51:43;48.44;36.69;60.47;;
4048;Laerm;2038;51.728;6.674;2023-11-21T04:54:09;53.11;36.69;68.87;;
4048;Laerm;2038;51.728;6.674;2023-11-21T04:56:36;50.23;37.52;64.32;;
4048;Laerm;2038;51.728;6.674;2023-11-21T04:59:02;46.88;35.94;60.48;;
4048;Laerm;2038;51.728;6.674;2023-11-21T05:01:28;49.72;35.94;65.15;;
4048;Laerm;2038;51.728;6.674;2023-11-21T05:03:55;46.84;36.45;60.48;;
4048;Laerm;2038;51.728;6.674;2023-11-21T05:06:23;47.43;35.94;61.58;;
4048;Laerm;2038;51.728;6.674;2023-11-21T05:08:49;50.72;37.52;66.59;;
4048;Laerm;2038;51.728;6.674;2023-11-21T05:11:27;47.42;36.20;59.88;;
4048;Laerm;2038;51.728;6.674;2023-11-21T05:13:53;49.93;35.94;63.28;;
4048;Laerm;2038;51.728;6.674;2023-11-21T05:16:21;47.79;37.52;62.53;;
4048;Laerm;2038;51.728;6.674;2023-11-21T05:18:48;45.79;36.91;58.27;;
4048;Laerm;2038;51.728;6.674;2023-11-21T05:21:16;50.07;37.52;61.96;;
4048;Laerm;2038;51.728;6.674;2023-11-21T05:23:42;51.42;37.32;62.03;;
4048;Laerm;2038;51.728;6.674;2023-11-21T05:26:08;51.57;37.12;62.84;;
4048;Laerm;2038;51.728;6.674;2023-11-21T05:28:35;44.88;36.91;59.90;;
4048;Laerm;2038;51.728;6.674;2023-11-21T05:31:01;49.02;36.69;62.10;;
4048;Laerm;2038;51.728;6.674;2023-11-21T05:33:27;51.06;37.52;65.05;;
4048;Laerm;2038;51.728;6.674;2023-11-21T05:35:54;48.87;37.32;61.55;;
4048;Laerm;2038;51.728;6.674;2023-11-21T05:38:20;53.33;37.88;69.38;;
4048;Laerm;2038;51.728;6.674;2023-11-21T05:40:47;50.08;38.37;61.25;;
4048;Laerm;2038;51.728;6.674;2023-11-21T05:43:14;54.45;38.52;65.93;;
4048;Laerm;2038;51.728;6.674;2023-11-21T05:45:41;50.07;36.69;60.28;;
4048;Laerm;2038;51.728;6.674;2023-11-21T05:48:07;49.21;37.70;62.64;;
4048;Laerm;2038;51.728;6.674;2023-11-21T05:50:33;53.42;37.52;67.66;;
4048;Laerm;2038;51.728;6.674;2023-11-21T05:52:59;49.71;37.88;60.62;;
4048;Laerm;2038;51.728;6.674;2023-11-21T05:55:26;50.94;36.69;62.15;;
4048;Laerm;2038;51.728;6.674;2023-11-21T05:57:53;44.79;35.66;58.50;;
4048;Laerm;2038;51.728;6.674;2023-11-21T06:00:19;54.45;38.52;73.05;;
4048;Laerm;2038;51.728;6.674;2023-11-21T06:02:49;48.32;36.69;59.97;;
4048;Laerm;2038;51.728;6.674;2023-11-21T06:05:19;51.98;38.21;65.77;;
4048;Laerm;2038;51.728;6.674;2023-11-21T06:07:45;53.64;37.88;63.67;;
4048;Laerm;2038;51.728;6.674;2023-11-21T06:10:12;51.30;39.92;62.48;;
4048;Laerm;2038;51.728;6.674;2023-11-21T06:12:41;53.27;39.58;68.92;;
4048;Laerm;2038;51.728;6.674;2023-11-21T06:15:10;50.51;38.05;60.97;;
4048;Laerm;2038;51.728;6.674;2023-11-21T06:17:40;53.45;38.37;63.93;;
4048;Laerm;2038;51.728;6.674;2023-11-21T06:20:10;51.27;38.67;60.84;;
4048;Laerm;2038;51.728;6.674;2023-11-21T06:22:42;52.17;37.70;65.47;;
4048;Laerm;2038;51.728;6.674;2023-11-21T06:25:09;51.23;39.08;60.01;;
4048;Laerm;2038;51.728;6.674;2023-11-21T06:27:40;48.86;37.52;60.37;;
4048;Laerm;2038;51.728;6.674;2023-11-21T06:30:08;48.77;36.91;58.80;;
4048;Laerm;2038;51.728;6.674;2023-11-21T06:32:39;52.42;37.52;65.96;;
4048;Laerm;2038;51.728;6.674;2023-11-21T06:35:07;50.79;37.88;60.51;;
4048;Laerm;2038;51.728;6.674;2023-11-21T06:37:34;53.71;38.05;67.08;;
4048;Laerm;2038;51.728;6.674;2023-11-21T06:40:01;51.92;37.52;63.17;;
4048;Laerm;2038;51.728;6.674;2023-11-21T06:42:30;52.53;39.81;64.15;;
4048;Laerm;2038;51.728;6.674;2023-11-21T06:44:57;53.75;39.92;67.34;;
4048;Laerm;2038;51.728;6.674;2023-11-21T06:47:24;54.18;39.34;66.02;;
4048;Laerm;2038;51.728;6.674;2023-11-21T06:49:56;51.98;38.52;62.02;;
4048;Laerm;2038;51.728;6.674;2023-11-21T06:52:22;52.81;39.89;66.16;;
4048;Laerm;2038;51.728;6.674;2023-11-21T06:54:49;52.27;38.52;63.21;;
4048;Laerm;2038;51.728;6.674;2023-11-21T06:57:18;52.72;37.52;67.43;;
4048;Laerm;2038;51.728;6.674;2023-11-21T06:59:44;54.25;38.81;71.10;;
4048;Laerm;2038;51.728;6.674;2023-11-21T07:02:11;50.24;37.70;63.56;;
4048;Laerm;2038;51.728;6.674;2023-11-21T07:04:37;48.84;37.52;61.15;;
4048;Laerm;2038;51.728;6.674;2023-11-21T07:07:04;49.07;37.88;60.01;;
4048;Laerm;2038;51.728;6.674;2023-11-21T07:09:31;48.67;37.88;60.95;;
4048;Laerm;2038;51.728;6.674;2023-11-21T07:11:57;46.71;36.45;60.89;;
4048;Laerm;2038;51.728;6.674;2023-11-21T07:14:23;49.03;38.37;61.59;;
4048;Laerm;2038;51.728;6.674;2023-11-21T07:16:49;52.73;39.46;63.99;;
4048;Laerm;2038;51.728;6.674;2023-11-21T07:19:17;54.09;38.67;67.63;;
4048;Laerm;2038;51.728;6.674;2023-11-21T07:21:43;49.35;38.32;59.67;;
4048;Laerm;2038;51.728;6.674;2023-11-21T07:24:09;50.60;39.08;62.86;;
4048;Laerm;2038;51.728;6.674;2023-11-21T07:26:37;53.56;38.95;70.08;;
4048;Laerm;2038;51.728;6.674;2023-11-21T07:29:03;48.96;39.34;59.87;;
4048;Laerm;2038;51.728;6.674;2023-11-21T07:31:30;49.19;37.87;61.73;;
4048;Laerm;2038;51.728;6.674;2023-11-21T07:33:57;49.33;37.70;62.13;;
4048;Laerm;2038;51.728;6.674;2023-11-21T07:36:24;49.72;38.67;58.91;;
4048;Laerm;2038;51.728;6.674;2023-11-21T07:38:51;50.90;38.37;61.67;;
4048;Laerm;2038;51.728;6.674;2023-11-21T07:41:18;49.33;38.67;59.81;;
4048;Laerm;2038;51.728;6.674;2023-11-21T07:43:45;49.54;38.95;60.16;;
4048;Laerm;2038;51.728;6.674;2023-11-21T07:46:12;49.98;39.21;60.49;;
4048;Laerm;2038;51.728;6.674;2023-11-21T07:48:40;51.09;40.53;65.21;;
4048;Laerm;2038;51.728;6.674;2023-11-21T07:51:07;49.85;40.71;63.64;;
4048;Laerm;2038;51.728;6.674;2023-11-21T07:53:34;51.12;39.34;65.72;;
4048;Laerm;2038;51.728;6.674;2023-11-21T07:56:06;51.54;39.08;63.44;;
4048;Laerm;2038;51.728;6.674;2023-11-21T07:58:34;51.23;39.08;65.65;;
4048;Laerm;2038;51.728;6.674;2023-11-21T08:01:02;50.78;38.52;63.26;;
4048;Laerm;2038;51.728;6.674;2023-11-21T08:03:29;49.14;38.52;61.40;;
4048;Laerm;2038;51.728;6.674;2023-11-21T08:05:59;50.57;39.34;61.50;;
4048;Laerm;2038;51.728;6.674;2023-11-21T08:08:26;46.05;37.70;57.53;;
4048;Laerm;2038;51.728;6.674;2023-11-21T08:10:53;47.42;36.91;60.87;;
4048;Laerm;2038;51.728;6.674;2023-11-21T08:13:26;48.64;36.91;61.53;;
4048;Laerm;2038;51.728;6.674;2023-11-21T08:15:57;49.71;38.05;62.51;;
4048;Laerm;2038;51.728;6.674;2023-11-21T08:18:30;48.31;38.05;58.59;;
4048;Laerm;2038;51.728;6.674;2023-11-21T08:20:56;48.45;38.37;62.85;;
4048;Laerm;2038;51.728;6.674;2023-11-21T08:23:23;51.90;39.46;65.54;;
4048;Laerm;2038;51.728;6.674;2023-11-21T08:25:53;48.95;39.21;61.09;;
4048;Laerm;2038;51.728;6.674;2023-11-21T08:28:20;53.01;39.08;64.32;;
4048;Laerm;2038;51.728;6.674;2023-11-21T08:30:48;47.92;36.91;61.05;;
4048;Laerm;2038;51.728;6.674;2023-11-21T08:33:14;47.54;37.52;57.87;;
4048;Laerm;2038;51.728;6.674;2023-11-21T08:35:40;47.62;37.12;58.94;;
4048;Laerm;2038;51.728;6.674;2023-11-21T08:38:07;50.19;38.21;63.15;;
4048;Laerm;2038;51.728;6.674;2023-11-21T08:40:34;48.06;37.52;63.04;;
4048;Laerm;2038;51.728;6.674;2023-11-21T08:43:01;50.17;37.12;64.49;;
4048;Laerm;2038;51.728;6.674;2023-11-21T08:45:27;49.70;38.67;59.76;;
4048;Laerm;2038;51.728;6.674;2023-11-21T08:47:53;51.08;37.88;65.67;;
4048;Laerm;2038;51.728;6.674;2023-11-21T08:50:19;49.44;38.05;62.59;;
4048;Laerm;2038;51.728;6.674;2023-11-21T08:52:46;51.63;37.88;66.82;;
4048;Laerm;2038;51.728;6.674;2023-11-21T08:55:12;51.01;37.70;63.30;;
4048;Laerm;2038;51.728;6.674;2023-11-21T08:57:40;61.43;37.70;97.35;;
4048;Laerm;2038;51.728;6.674;2023-11-21T09:00:08;61.24;37.32;97.31;;
4048;Laerm;2038;51.728;6.674;2023-11-21T09:02:39;53.92;38.05;88.09;;
4048;Laerm;2038;51.728;6.674;2023-11-21T09:05:12;50.06;38.05;73.86;;
4048;Laerm;2038;51.728;6.674;2023-11-21T09:07:41;49.89;35.66;72.76;;
4048;Laerm;2038;51.728;6.674;2023-11-21T09:10:08;48.50;37.32;66.46;;
4048;Laerm;2038;51.728;6.674;2023-11-21T09:12:36;46.72;37.88;59.37;;
4048;Laerm;2038;51.728;6.674;2023-11-21T09:15:07;50.47;38.05;60.68;;
4048;Laerm;2038;51.728;6.674;2023-11-21T09:17:35;46.86;36.91;59.77;;
4048;Laerm;2038;51.728;6.674;2023-11-21T09:20:02;48.61;37.32;59.84;;
4048;Laerm;2038;51.728;6.674;2023-11-21T09:22:34;46.42;37.32;59.18;;
4048;Laerm;2038;51.728;6.674;2023-11-21T09:25:00;49.64;38.21;61.70;;
4048;Laerm;2038;51.728;6.674;2023-11-21T09:27:26;45.91;36.91;61.01;;
4048;Laerm;2038;51.728;6.674;2023-11-21T09:29:52;51.17;37.12;67.89;;
4048;Laerm;2038;51.728;6.674;2023-11-21T09:32:20;45.09;36.69;58.99;;
4048;Laerm;2038;51.728;6.674;2023-11-21T09:34:48;47.19;36.45;70.78;;
4048;Laerm;2038;51.728;6.674;2023-11-21T09:37:14;50.24;39.08;62.25;;
4048;Laerm;2038;51.728;6.674;2023-11-21T09:39:41;52.09;38.52;72.97;;
4048;Laerm;2038;51.728;6.674;2023-11-21T09:42:23;51.00;38.95;71.24;;
4048;Laerm;2038;51.728;6.674;2023-11-21T09:45:03;54.58;39.21;76.68;;
4048;Laerm;2038;51.728;6.674;2023-11-21T09:47:32;54.18;40.89;70.74;;
4048;Laerm;2038;51.728;6.674;2023-11-21T09:50:02;51.96;40.71;66.40;;
4048;Laerm;2038;51.728;6.674;2023-11-21T09:52:29;49.12;36.91;64.82;;
4048;Laerm;2038;51.728;6.674;2023-11-21T09:54:59;48.33;38.52;58.85;;
4048;Laerm;2038;51.728;6.674;2023-11-21T09:57:28;50.83;37.12;62.21;;
4048;Laerm;2038;51.728;6.674;2023-11-21T09:59:57;49.22;39.58;60.51;;
4048;Laerm;2038;51.728;6.674;2023-11-21T10:02:30;48.84;38.52;62.08;;
4048;Laerm;2038;51.728;6.674;2023-11-21T10:04:57;50.03;38.21;62.94;;
4048;Laerm;2038;51.728;6.674;2023-11-21T10:07:26;50.48;37.88;65.32;;
4048;Laerm;2038;51.728;6.674;2023-11-21T10:09:54;48.41;38.21;58.31;;
4048;Laerm;2038;51.728;6.674;2023-11-21T10:12:23;51.33;40.23;65.61;;
4048;Laerm;2038;51.728;6.674;2023-11-21T10:14:50;48.62;38.37;61.08;;
4048;Laerm;2038;51.728;6.674;2023-11-21T10:17:19;50.00;37.88;64.10;;
4048;Laerm;2038;51.728;6.674;2023-11-21T10:19:50;49.47;37.70;62.87;;
4048;Laerm;2038;51.728;6.674;2023-11-21T10:22:16;49.13;39.34;62.13;;
4048;Laerm;2038;51.728;6.674;2023-11-21T10:24:43;49.38;39.46;59.55;;
4048;Laerm;2038;51.728;6.674;2023-11-21T10:27:09;53.21;38.67;69.07;;
4048;Laerm;2038;51.728;6.674;2023-11-21T10:29:36;42.83;37.52;56.00;;
4048;Laerm;2038;51.728;6.674;2023-11-21T10:32:05;48.01;37.32;59.23;;
4048;Laerm;2038;51.728;6.674;2023-11-21T10:34:32;50.75;39.58;61.91;;
4048;Laerm;2038;51.728;6.674;2023-11-21T10:37:10;51.45;38.67;66.44;;
4048;Laerm;2038;51.728;6.674;2023-11-21T10:39:38;54.12;39.58;69.58;;
4048;Laerm;2038;51.728;6.674;2023-11-21T10:42:08;55.43;37.70;71.76;;
4048;Laerm;2038;51.728;6.674;2023-11-21T10:44:35;50.43;37.70;67.21;;
4048;Laerm;2038;51.728;6.674;2023-11-21T10:47:01;51.14;37.88;66.81;;
4048;Laerm;2038;51.728;6.674;2023-11-21T10:49:28;52.60;39.81;70.17;;
4048;Laerm;2038;51.728;6.674;2023-11-21T10:51:54;50.83;37.32;63.01;;
4048;Laerm;2038;51.728;6.674;2023-11-21T10:54:24;51.53;38.81;60.81;;
4048;Laerm;2038;51.728;6.674;2023-11-21T10:56:57;53.93;39.08;68.38;;
4048;Laerm;2038;51.728;6.674;2023-11-21T10:59:29;47.72;37.32;62.53;;
4048;Laerm;2038;51.728;6.674;2023-11-21T11:01:58;55.20;37.52;68.81;;
4048;Laerm;2038;51.728;6.674;2023-11-21T11:04:27;52.81;37.70;71.62;;
4048;Laerm;2038;51.728;6.674;2023-11-21T11:07:03;48.87;37.70;61.91;;
4048;Laerm;2038;51.728;6.674;2023-11-21T11:09:32;51.67;36.69;65.80;;
4048;Laerm;2038;51.728;6.674;2023-11-21T11:12:02;51.41;40.33;65.27;;
4048;Laerm;2038;51.728;6.674;2023-11-21T11:14:31;51.38;37.88;64.62;;
4048;Laerm;2038;51.728;6.674;2023-11-21T11:16:59;54.73;38.67;67.68;;
4048;Laerm;2038;51.728;6.674;2023-11-21T11:19:27;52.14;38.21;68.16;;
4048;Laerm;2038;51.728;6.674;2023-11-21T11:22:28;53.12;39.81;69.76;;
4048;Laerm;2038;51.728;6.674;2023-11-21T11:25:27;50.53;37.70;65.19;;
4048;Laerm;2038;51.728;6.674;2023-11-21T11:28:07;52.30;36.91;66.57;;
4048;Laerm;2038;51.728;6.674;2023-11-21T11:30:57;50.14;37.88;65.31;;
4048;Laerm;2038;51.728;6.674;2023-11-21T11:36:26;52.49;36.69;67.46;;
4048;Laerm;2038;51.728;6.674;2023-11-21T11:38:54;52.19;39.34;65.55;;
4048;Laerm;2038;51.728;6.674;2023-11-21T11:41:32;52.36;39.21;64.00;;
4048;Laerm;2038;51.728;6.674;2023-11-21T11:44:03;54.06;39.08;65.99;;
4048;Laerm;2038;51.728;6.674;2023-11-21T11:46:44;51.99;38.05;64.00;;
4048;Laerm;2038;51.728;6.674;2023-11-21T11:49:28;51.31;38.05;63.07;;
4048;Laerm;2038;51.728;6.674;2023-11-21T11:55:31;52.34;38.21;65.21;;
4048;Laerm;2038;51.728;6.674;2023-11-21T11:57:59;55.21;38.05;69.04;;
4048;Laerm;2038;51.728;6.674;2023-11-21T12:02:59;56.43;38.52;70.05;;
4048;Laerm;2038;51.728;6.674;2023-11-21T12:05:31;55.30;39.58;69.01;;
4048;Laerm;2038;51.728;6.674;2023-11-21T12:08:02;56.23;39.21;67.41;;
4048;Laerm;2038;51.728;6.674;2023-11-21T12:10:33;54.16;38.81;67.01;;
4048;Laerm;2038;51.728;6.674;2023-11-21T12:13:06;54.86;40.13;68.15;;
4048;Laerm;2038;51.728;6.674;2023-11-21T12:15:36;51.74;39.70;61.25;;
4048;Laerm;2038;51.728;6.674;2023-11-21T12:18:03;49.35;38.37;61.91;;
4048;Laerm;2038;51.728;6.674;2023-11-21T12:20:32;56.37;38.52;70.49;;
4048;Laerm;2038;51.728;6.674;2023-11-21T12:23:05;50.55;39.21;65.00;;
4048;Laerm;2038;51.728;6.674;2023-11-21T12:25:32;53.27;39.92;66.15;;
4048;Laerm;2038;51.728;6.674;2023-11-21T12:28:00;51.64;38.37;63.21;;
4048;Laerm;2038;51.728;6.674;2023-11-21T12:30:29;55.43;39.34;68.40;;
4048;Laerm;2038;51.728;6.674;2023-11-21T12:32:59;51.03;39.21;63.34;;
4048;Laerm;2038;51.728;6.674;2023-11-21T12:35:28;51.67;39.92;63.33;;
4048;Laerm;2038;51.728;6.674;2023-11-21T12:37:56;53.87;38.95;66.51;;
4048;Laerm;2038;51.728;6.674;2023-11-21T12:40:25;52.51;39.21;63.03;;
4048;Laerm;2038;51.728;6.674;2023-11-21T12:42:56;52.57;41.30;66.22;;
4048;Laerm;2038;51.728;6.674;2023-11-21T12:45:28;52.83;39.46;64.59;;
4048;Laerm;2038;51.728;6.674;2023-11-21T12:48:03;51.79;38.37;63.16;;
4048;Laerm;2038;51.728;6.674;2023-11-21T12:50:34;46.33;38.05;57.86;;
4048;Laerm;2038;51.728;6.674;2023-11-21T12:53:08;52.45;38.67;63.37;;
4048;Laerm;2038;51.728;6.674;2023-11-21T12:55:36;52.02;38.37;64.14;;
4048;Laerm;2038;51.728;6.674;2023-11-21T12:58:06;51.44;38.67;63.86;;
4048;Laerm;2038;51.728;6.674;2023-11-21T13:00:43;53.86;39.46;66.80;;
4048;Laerm;2038;51.728;6.674;2023-11-21T13:03:12;51.08;38.37;65.59;;
4048;Laerm;2038;51.728;6.674;2023-11-21T13:05:44;54.98;40.33;67.80;;
4048;Laerm;2038;51.728;6.674;2023-11-21T13:08:13;51.31;38.81;61.86;;
4048;Laerm;2038;51.728;6.674;2023-11-21T13:10:44;52.34;39.58;61.24;;
4048;Laerm;2038;51.728;6.674;2023-11-21T13:13:13;53.69;39.08;67.71;;
4048;Laerm;2038;51.728;6.674;2023-11-21T13:15:55;53.68;40.89;64.06;;
4048;Laerm;2038;51.728;6.674;2023-11-21T13:18:25;53.43;39.81;66.92;;
4048;Laerm;2038;51.728;6.674;2023-11-21T13:20:54;51.27;39.46;61.01;;
4048;Laerm;2038;51.728;6.674;2023-11-21T13:23:21;51.79;39.70;65.44;;
4048;Laerm;2038;51.728;6.674;2023-11-21T13:25:48;51.53;40.53;61.09;;
4048;Laerm;2038;51.728;6.674;2023-11-21T13:28:16;55.34;40.71;70.58;;
4048;Laerm;2038;51.728;6.674;2023-11-21T13:30:44;52.25;40.43;69.42;;
4048;Laerm;2038;51.728;6.674;2023-11-21T13:33:11;53.41;39.70;61.99;;
4048;Laerm;2038;51.728;6.674;2023-11-21T13:35:45;53.53;40.62;64.81;;
4048;Laerm;2038;51.728;6.674;2023-11-21T13:38:17;49.80;39.70;58.83;;
4048;Laerm;2038;51.728;6.674;2023-11-21T13:40:50;54.38;39.58;68.47;;
4048;Laerm;2038;51.728;6.674;2023-11-21T13:43:21;53.59;40.43;62.51;;
4048;Laerm;2038;51.728;6.674;2023-11-21T13:45:52;53.56;39.92;66.55;;
4048;Laerm;2038;51.728;6.674;2023-11-21T13:48:27;52.09;39.92;63.70;;
4048;Laerm;2038;51.728;6.674;2023-11-21T13:51:11;53.08;40.23;65.17;;
4048;Laerm;2038;51.728;6.674;2023-11-21T13:53:45;51.60;42.16;61.30;;
4048;Laerm;2038;51.728;6.674;2023-11-21T13:56:16;51.88;41.46;61.68;;
4048;Laerm;2038;51.728;6.674;2023-11-21T13:58:47;52.78;41.14;65.95;;
4048;Laerm;2038;51.728;6.674;2023-11-21T14:01:22;56.12;40.89;67.11;;
4048;Laerm;2038;51.728;6.674;2023-11-21T14:03:59;52.97;39.46;68.87;;
4048;Laerm;2038;51.728;6.674;2023-11-21T14:06:38;51.97;40.33;65.01;;
4048;Laerm;2038;51.728;6.674;2023-11-21T14:09:19;55.12;41.68;65.09;;
4048;Laerm;2038;51.728;6.674;2023-11-21T14:11:57;52.08;40.53;63.79;;
4048;Laerm;2038;51.728;6.674;2023-11-21T14:14:26;52.73;39.81;63.72;;
4048;Laerm;2038;51.728;6.674;2023-11-21T14:16:54;53.34;40.98;64.68;;
4048;Laerm;2038;51.728;6.674;2023-11-21T14:19:24;53.81;40.80;66.92;;
4048;Laerm;2038;51.728;6.674;2023-11-21T14:21:57;50.30;40.98;61.80;;
4048;Laerm;2038;51.728;6.674;2023-11-21T14:24:24;55.23;41.30;64.29;;
4048;Laerm;2038;51.728;6.674;2023-11-21T14:26:50;49.64;39.58;62.73;;